sensor_id;sensor_type;location;lat;lon;timestamp;P1;durP1;ratioP1;P2;durP2;ratioP2
7969;SDS011;4030;52.362;9.206;2023-10-09T00:01:39;1.45;;;1.05;;
7969;SDS011;4030;52.362;9.206;2023-10-09T00:04:09;3.22;;;1.17;;
7969;SDS011;4030;52.362;9.206;2023-10-09T00:06:36;1.52;;;1.00;;
7969;SDS011;4030;52.362;9.206;2023-10-09T00:09:05;2.60;;;1.27;;
7969;SDS011;4030;52.362;9.206;2023-10-09T00:11:57;1.85;;;1.00;;
7969;SDS011;4030;52.362;9.206;2023-10-09T00:14:29;1.45;;;1.00;;
7969;SDS011;4030;52.362;9.206;2023-10-09T00:16:58;1.90;;;1.10;;
7969;SDS011;4030;52.362;9.206;2023-10-09T00:19:37;2.17;;;1.30;;
7969;SDS011;4030;52.362;9.206;2023-10-09T00:22:02;3.33;;;1.00;;
7969;SDS011;4030;52.362;9.206;2023-10-09T00:24:51;1.98;;;1.13;;
7969;SDS011;4030;52.362;9.206;2023-10-09T00:27:36;2.17;;;1.10;;
7969;SDS011;4030;52.362;9.206;2023-10-09T00:30:08;2.42;;;1.35;;
7969;SDS011;4030;52.362;9.206;2023-10-09T00:32:54;1.63;;;1.08;;
7969;SDS011;4030;52.362;9.206;2023-10-09T00:35:23;1.80;;;1.27;;
7969;SDS011;4030;52.362;9.206;2023-10-09T00:38:01;2.60;;;1.30;;
7969;SDS011;4030;52.362;9.206;2023-10-09T00:40:49;1.63;;;1.00;;
7969;SDS011;4030;52.362;9.206;2023-10-09T00:43:28;3.65;;;1.20;;
7969;SDS011;4030;52.362;9.206;2023-10-09T00:45:56;2.47;;;1.30;;
7969;SDS011;4030;52.362;9.206;2023-10-09T00:48:28;1.20;;;0.98;;
7969;SDS011;4030;52.362;9.206;2023-10-09T00:51:02;1.05;;;0.90;;
7969;SDS011;4030;52.362;9.206;2023-10-09T00:53:40;1.70;;;1.23;;
7969;SDS011;4030;52.362;9.206;2023-10-09T00:56:08;2.47;;;1.27;;
7969;SDS011;4030;52.362;9.206;2023-10-09T00:58:58;1.60;;;1.10;;
7969;SDS011;4030;52.362;9.206;2023-10-09T01:01:32;1.60;;;1.10;;
7969;SDS011;4030;52.362;9.206;2023-10-09T01:04:05;1.58;;;1.13;;
7969;SDS011;4030;52.362;9.206;2023-10-09T01:06:43;2.10;;;1.23;;
7969;SDS011;4030;52.362;9.206;2023-10-09T01:09:12;2.00;;;1.20;;
7969;SDS011;4030;52.362;9.206;2023-10-09T01:11:42;2.10;;;1.20;;
7969;SDS011;4030;52.362;9.206;2023-10-09T01:14:24;2.33;;;1.00;;
7969;SDS011;4030;52.362;9.206;2023-10-09T01:16:50;2.72;;;1.20;;
7969;SDS011;4030;52.362;9.206;2023-10-09T01:19:19;1.60;;;1.20;;
7969;SDS011;4030;52.362;9.206;2023-10-09T01:21:48;1.77;;;1.15;;
7969;SDS011;4030;52.362;9.206;2023-10-09T01:24:19;1.77;;;1.08;;
7969;SDS011;4030;52.362;9.206;2023-10-09T01:26:46;1.70;;;1.13;;
7969;SDS011;4030;52.362;9.206;2023-10-09T01:29:16;1.88;;;1.20;;
7969;SDS011;4030;52.362;9.206;2023-10-09T01:34:38;1.60;;;1.05;;
7969;SDS011;4030;52.362;9.206;2023-10-09T01:37:06;3.05;;;1.30;;
7969;SDS011;4030;52.362;9.206;2023-10-09T01:39:42;3.10;;;1.20;;
7969;SDS011;4030;52.362;9.206;2023-10-09T01:42:10;1.38;;;1.20;;
7969;SDS011;4030;52.362;9.206;2023-10-09T01:44:35;1.60;;;1.20;;
7969;SDS011;4030;52.362;9.206;2023-10-09T01:47:08;1.67;;;1.10;;
7969;SDS011;4030;52.362;9.206;2023-10-09T01:49:38;2.42;;;1.20;;
7969;SDS011;4030;52.362;9.206;2023-10-09T01:52:09;2.20;;;1.20;;
7969;SDS011;4030;52.362;9.206;2023-10-09T01:54:41;1.40;;;1.10;;
7969;SDS011;4030;52.362;9.206;2023-10-09T01:57:13;2.47;;;1.40;;
7969;SDS011;4030;52.362;9.206;2023-10-09T01:59:41;1.40;;;1.10;;
7969;SDS011;4030;52.362;9.206;2023-10-09T02:02:09;1.42;;;1.00;;
7969;SDS011;4030;52.362;9.206;2023-10-09T02:04:51;1.77;;;1.10;;
7969;SDS011;4030;52.362;9.206;2023-10-09T02:07:42;1.88;;;1.27;;
7969;SDS011;4030;52.362;9.206;2023-10-09T02:10:20;2.58;;;1.63;;
7969;SDS011;4030;52.362;9.206;2023-10-09T02:12:56;3.10;;;1.52;;
7969;SDS011;4030;52.362;9.206;2023-10-09T02:15:37;2.38;;;1.40;;
7969;SDS011;4030;52.362;9.206;2023-10-09T02:18:11;2.65;;;1.45;;
7969;SDS011;4030;52.362;9.206;2023-10-09T02:20:43;2.22;;;1.27;;
7969;SDS011;4030;52.362;9.206;2023-10-09T02:23:29;2.47;;;1.30;;
7969;SDS011;4030;52.362;9.206;2023-10-09T02:26:05;2.05;;;1.30;;
7969;SDS011;4030;52.362;9.206;2023-10-09T02:28:34;1.95;;;1.20;;
7969;SDS011;4030;52.362;9.206;2023-10-09T02:31:01;1.90;;;1.30;;
7969;SDS011;4030;52.362;9.206;2023-10-09T02:33:35;2.65;;;1.45;;
7969;SDS011;4030;52.362;9.206;2023-10-09T02:36:02;2.17;;;1.40;;
7969;SDS011;4030;52.362;9.206;2023-10-09T02:38:30;2.08;;;1.27;;
7969;SDS011;4030;52.362;9.206;2023-10-09T02:40:59;2.10;;;1.30;;
7969;SDS011;4030;52.362;9.206;2023-10-09T02:43:28;2.85;;;1.30;;
7969;SDS011;4030;52.362;9.206;2023-10-09T02:46:10;2.35;;;1.42;;
7969;SDS011;4030;52.362;9.206;2023-10-09T02:48:43;1.65;;;1.30;;
7969;SDS011;4030;52.362;9.206;2023-10-09T02:51:12;1.92;;;1.40;;
7969;SDS011;4030;52.362;9.206;2023-10-09T02:54:01;2.22;;;1.33;;
7969;SDS011;4030;52.362;9.206;2023-10-09T02:56:52;2.13;;;1.25;;
7969;SDS011;4030;52.362;9.206;2023-10-09T02:59:30;2.17;;;1.45;;
7969;SDS011;4030;52.362;9.206;2023-10-09T03:01:56;2.20;;;1.33;;
7969;SDS011;4030;52.362;9.206;2023-10-09T03:04:24;1.90;;;1.33;;
7969;SDS011;4030;52.362;9.206;2023-10-09T03:06:58;1.83;;;1.38;;
7969;SDS011;4030;52.362;9.206;2023-10-09T03:09:28;2.03;;;1.40;;
7969;SDS011;4030;52.362;9.206;2023-10-09T03:11:58;2.55;;;1.63;;
7969;SDS011;4030;52.362;9.206;2023-10-09T03:14:27;3.30;;;1.85;;
7969;SDS011;4030;52.362;9.206;2023-10-09T03:17:00;2.17;;;1.60;;
7969;SDS011;4030;52.362;9.206;2023-10-09T03:19:27;2.10;;;1.52;;
7969;SDS011;4030;52.362;9.206;2023-10-09T03:21:54;3.47;;;1.90;;
7969;SDS011;4030;52.362;9.206;2023-10-09T03:24:25;3.33;;;2.25;;
7969;SDS011;4030;52.362;9.206;2023-10-09T03:26:52;5.00;;;2.40;;
7969;SDS011;4030;52.362;9.206;2023-10-09T03:29:20;3.70;;;2.55;;
7969;SDS011;4030;52.362;9.206;2023-10-09T03:31:47;3.70;;;2.42;;
7969;SDS011;4030;52.362;9.206;2023-10-09T03:34:15;4.57;;;2.72;;
7969;SDS011;4030;52.362;9.206;2023-10-09T03:36:43;4.57;;;3.20;;
7969;SDS011;4030;52.362;9.206;2023-10-09T03:39:10;5.85;;;3.47;;
7969;SDS011;4030;52.362;9.206;2023-10-09T03:41:49;4.70;;;3.40;;
7969;SDS011;4030;52.362;9.206;2023-10-09T03:44:23;6.55;;;3.85;;
7969;SDS011;4030;52.362;9.206;2023-10-09T03:46:53;5.25;;;3.40;;
7969;SDS011;4030;52.362;9.206;2023-10-09T03:49:20;5.88;;;4.38;;
7969;SDS011;4030;52.362;9.206;2023-10-09T03:51:49;9.93;;;4.70;;
7969;SDS011;4030;52.362;9.206;2023-10-09T03:54:15;5.00;;;4.28;;
7969;SDS011;4030;52.362;9.206;2023-10-09T03:56:45;6.40;;;4.68;;
7969;SDS011;4030;52.362;9.206;2023-10-09T03:59:24;6.95;;;4.38;;
7969;SDS011;4030;52.362;9.206;2023-10-09T04:01:55;6.00;;;4.55;;
7969;SDS011;4030;52.362;9.206;2023-10-09T04:04:23;6.28;;;4.38;;
7969;SDS011;4030;52.362;9.206;2023-10-09T04:06:50;5.63;;;4.45;;
7969;SDS011;4030;52.362;9.206;2023-10-09T04:09:18;6.57;;;4.88;;
7969;SDS011;4030;52.362;9.206;2023-10-09T04:11:44;5.60;;;4.65;;
7969;SDS011;4030;52.362;9.206;2023-10-09T04:14:37;6.82;;;5.05;;
7969;SDS011;4030;52.362;9.206;2023-10-09T04:17:33;6.63;;;4.78;;
7969;SDS011;4030;52.362;9.206;2023-10-09T04:20:00;6.78;;;4.68;;
7969;SDS011;4030;52.362;9.206;2023-10-09T04:22:44;8.52;;;4.90;;
7969;SDS011;4030;52.362;9.206;2023-10-09T04:25:18;7.10;;;5.07;;
7969;SDS011;4030;52.362;9.206;2023-10-09T04:27:52;6.35;;;4.82;;
7969;SDS011;4030;52.362;9.206;2023-10-09T04:30:40;5.50;;;4.65;;
7969;SDS011;4030;52.362;9.206;2023-10-09T04:33:11;6.32;;;4.75;;
7969;SDS011;4030;52.362;9.206;2023-10-09T04:36:03;8.27;;;5.30;;
7969;SDS011;4030;52.362;9.206;2023-10-09T04:38:48;6.72;;;4.68;;
7969;SDS011;4030;52.362;9.206;2023-10-09T04:41:28;6.72;;;4.55;;
7969;SDS011;4030;52.362;9.206;2023-10-09T04:44:06;6.50;;;4.45;;
7969;SDS011;4030;52.362;9.206;2023-10-09T04:46:45;7.60;;;5.00;;
7969;SDS011;4030;52.362;9.206;2023-10-09T04:49:34;6.60;;;5.00;;
7969;SDS011;4030;52.362;9.206;2023-10-09T04:52:17;6.47;;;5.20;;
7969;SDS011;4030;52.362;9.206;2023-10-09T04:55:03;5.63;;;4.60;;
7969;SDS011;4030;52.362;9.206;2023-10-09T04:57:36;6.93;;;4.75;;
7969;SDS011;4030;52.362;9.206;2023-10-09T05:00:09;5.95;;;4.82;;
7969;SDS011;4030;52.362;9.206;2023-10-09T05:03:08;7.70;;;5.38;;
7969;SDS011;4030;52.362;9.206;2023-10-09T05:05:37;8.20;;;5.15;;
7969;SDS011;4030;52.362;9.206;2023-10-09T05:08:10;6.35;;;4.57;;
7969;SDS011;4030;52.362;9.206;2023-10-09T05:13:26;6.40;;;4.70;;
7969;SDS011;4030;52.362;9.206;2023-10-09T05:18:38;6.28;;;4.72;;
7969;SDS011;4030;52.362;9.206;2023-10-09T05:21:04;7.55;;;5.68;;
7969;SDS011;4030;52.362;9.206;2023-10-09T05:23:51;6.97;;;5.00;;
7969;SDS011;4030;52.362;9.206;2023-10-09T05:26:35;9.35;;;5.30;;
7969;SDS011;4030;52.362;9.206;2023-10-09T05:29:14;7.88;;;5.30;;
7969;SDS011;4030;52.362;9.206;2023-10-09T05:31:47;6.63;;;5.47;;
7969;SDS011;4030;52.362;9.206;2023-10-09T05:34:33;6.20;;;5.45;;
7969;SDS011;4030;52.362;9.206;2023-10-09T05:37:06;7.28;;;5.30;;
7969;SDS011;4030;52.362;9.206;2023-10-09T05:39:53;8.07;;;5.40;;
7969;SDS011;4030;52.362;9.206;2023-10-09T05:42:23;7.25;;;5.63;;
7969;SDS011;4030;52.362;9.206;2023-10-09T05:44:54;6.90;;;5.32;;
7969;SDS011;4030;52.362;9.206;2023-10-09T05:47:46;7.88;;;6.05;;
7969;SDS011;4030;52.362;9.206;2023-10-09T05:50:33;8.57;;;5.50;;
7969;SDS011;4030;52.362;9.206;2023-10-09T05:52:59;8.65;;;5.93;;
7969;SDS011;4030;52.362;9.206;2023-10-09T05:55:27;8.32;;;5.95;;
7969;SDS011;4030;52.362;9.206;2023-10-09T05:58:12;7.20;;;5.68;;
7969;SDS011;4030;52.362;9.206;2023-10-09T06:00:58;7.82;;;5.57;;
7969;SDS011;4030;52.362;9.206;2023-10-09T06:03:32;6.63;;;5.57;;
7969;SDS011;4030;52.362;9.206;2023-10-09T06:06:13;6.93;;;5.50;;
7969;SDS011;4030;52.362;9.206;2023-10-09T06:09:04;7.72;;;5.38;;
7969;SDS011;4030;52.362;9.206;2023-10-09T06:11:40;7.38;;;5.50;;
7969;SDS011;4030;52.362;9.206;2023-10-09T06:14:15;7.40;;;5.25;;
7969;SDS011;4030;52.362;9.206;2023-10-09T06:16:50;7.03;;;5.20;;
7969;SDS011;4030;52.362;9.206;2023-10-09T06:19:21;7.45;;;5.32;;
7969;SDS011;4030;52.362;9.206;2023-10-09T06:21:47;7.30;;;5.63;;
7969;SDS011;4030;52.362;9.206;2023-10-09T06:24:28;7.78;;;5.60;;
7969;SDS011;4030;52.362;9.206;2023-10-09T06:27:07;8.85;;;5.50;;
7969;SDS011;4030;52.362;9.206;2023-10-09T06:29:39;8.68;;;5.97;;
7969;SDS011;4030;52.362;9.206;2023-10-09T06:32:11;9.88;;;6.30;;
7969;SDS011;4030;52.362;9.206;2023-10-09T06:37:42;8.43;;;5.70;;
7969;SDS011;4030;52.362;9.206;2023-10-09T06:40:31;6.85;;;5.45;;
7969;SDS011;4030;52.362;9.206;2023-10-09T06:43:23;7.30;;;5.53;;
7969;SDS011;4030;52.362;9.206;2023-10-09T06:45:49;7.93;;;5.78;;
7969;SDS011;4030;52.362;9.206;2023-10-09T06:48:39;7.50;;;6.05;;
7969;SDS011;4030;52.362;9.206;2023-10-09T06:51:05;8.10;;;5.78;;
7969;SDS011;4030;52.362;9.206;2023-10-09T06:53:54;8.43;;;5.90;;
7969;SDS011;4030;52.362;9.206;2023-10-09T06:56:27;6.88;;;5.70;;
7969;SDS011;4030;52.362;9.206;2023-10-09T06:58:54;9.68;;;6.53;;
7969;SDS011;4030;52.362;9.206;2023-10-09T07:01:38;9.02;;;6.18;;
7969;SDS011;4030;52.362;9.206;2023-10-09T07:04:10;8.35;;;5.88;;
7969;SDS011;4030;52.362;9.206;2023-10-09T07:06:55;8.20;;;6.47;;
7969;SDS011;4030;52.362;9.206;2023-10-09T07:09:21;8.23;;;6.03;;
7969;SDS011;4030;52.362;9.206;2023-10-09T07:11:50;7.50;;;6.22;;
7969;SDS011;4030;52.362;9.206;2023-10-09T07:14:20;10.52;;;6.82;;
7969;SDS011;4030;52.362;9.206;2023-10-09T07:17:03;8.30;;;6.60;;
7969;SDS011;4030;52.362;9.206;2023-10-09T07:19:50;8.68;;;6.47;;
7969;SDS011;4030;52.362;9.206;2023-10-09T07:22:23;11.48;;;6.97;;
7969;SDS011;4030;52.362;9.206;2023-10-09T07:24:54;8.73;;;6.50;;
7969;SDS011;4030;52.362;9.206;2023-10-09T07:27:22;8.52;;;6.63;;
7969;SDS011;4030;52.362;9.206;2023-10-09T07:30:07;7.75;;;6.60;;
7969;SDS011;4030;52.362;9.206;2023-10-09T07:32:53;8.95;;;6.50;;
7969;SDS011;4030;52.362;9.206;2023-10-09T07:35:30;8.68;;;6.93;;
7969;SDS011;4030;52.362;9.206;2023-10-09T07:38:14;10.50;;;7.40;;
7969;SDS011;4030;52.362;9.206;2023-10-09T07:40:48;9.63;;;7.10;;
7969;SDS011;4030;52.362;9.206;2023-10-09T07:43:25;9.90;;;6.30;;
7969;SDS011;4030;52.362;9.206;2023-10-09T07:46:08;10.38;;;6.85;;
7969;SDS011;4030;52.362;9.206;2023-10-09T07:48:58;9.43;;;7.20;;
7969;SDS011;4030;52.362;9.206;2023-10-09T07:51:33;11.45;;;7.15;;
7969;SDS011;4030;52.362;9.206;2023-10-09T07:54:01;9.05;;;6.40;;
7969;SDS011;4030;52.362;9.206;2023-10-09T07:56:37;11.90;;;8.30;;
7969;SDS011;4030;52.362;9.206;2023-10-09T07:59:08;8.60;;;6.53;;
7969;SDS011;4030;52.362;9.206;2023-10-09T08:01:41;8.88;;;6.50;;
7969;SDS011;4030;52.362;9.206;2023-10-09T08:04:26;9.20;;;6.75;;
7969;SDS011;4030;52.362;9.206;2023-10-09T08:07:11;10.68;;;6.85;;
7969;SDS011;4030;52.362;9.206;2023-10-09T08:09:50;8.77;;;6.60;;
7969;SDS011;4030;52.362;9.206;2023-10-09T08:12:35;8.75;;;6.72;;
7969;SDS011;4030;52.362;9.206;2023-10-09T08:15:22;8.68;;;6.35;;
7969;SDS011;4030;52.362;9.206;2023-10-09T08:18:13;9.13;;;7.60;;
7969;SDS011;4030;52.362;9.206;2023-10-09T08:20:52;10.27;;;7.13;;
7969;SDS011;4030;52.362;9.206;2023-10-09T08:23:22;9.55;;;6.93;;
7969;SDS011;4030;52.362;9.206;2023-10-09T08:26:00;10.45;;;7.43;;
7969;SDS011;4030;52.362;9.206;2023-10-09T08:28:40;9.02;;;7.13;;
7969;SDS011;4030;52.362;9.206;2023-10-09T08:31:11;10.88;;;7.55;;
7969;SDS011;4030;52.362;9.206;2023-10-09T08:33:56;12.40;;;7.38;;
7969;SDS011;4030;52.362;9.206;2023-10-09T08:36:24;9.15;;;7.07;;
7969;SDS011;4030;52.362;9.206;2023-10-09T08:38:53;9.60;;;7.15;;
7969;SDS011;4030;52.362;9.206;2023-10-09T08:41:23;9.45;;;6.82;;
7969;SDS011;4030;52.362;9.206;2023-10-09T08:43:55;8.75;;;6.53;;
7969;SDS011;4030;52.362;9.206;2023-10-09T08:46:23;8.57;;;6.75;;
7969;SDS011;4030;52.362;9.206;2023-10-09T08:48:57;9.05;;;6.25;;
7969;SDS011;4030;52.362;9.206;2023-10-09T08:51:25;9.15;;;7.30;;
7969;SDS011;4030;52.362;9.206;2023-10-09T08:53:52;8.88;;;6.70;;
7969;SDS011;4030;52.362;9.206;2023-10-09T08:56:19;8.73;;;7.00;;
7969;SDS011;4030;52.362;9.206;2023-10-09T08:58:52;9.50;;;7.13;;
7969;SDS011;4030;52.362;9.206;2023-10-09T09:01:21;9.73;;;7.13;;
7969;SDS011;4030;52.362;9.206;2023-10-09T09:03:49;9.88;;;7.15;;
7969;SDS011;4030;52.362;9.206;2023-10-09T09:06:19;10.23;;;7.28;;
7969;SDS011;4030;52.362;9.206;2023-10-09T09:08:46;10.80;;;7.63;;
7969;SDS011;4030;52.362;9.206;2023-10-09T09:11:13;9.30;;;7.35;;
7969;SDS011;4030;52.362;9.206;2023-10-09T09:13:48;9.32;;;7.40;;
7969;SDS011;4030;52.362;9.206;2023-10-09T09:16:33;10.52;;;7.43;;
7969;SDS011;4030;52.362;9.206;2023-10-09T09:19:05;11.05;;;7.75;;
7969;SDS011;4030;52.362;9.206;2023-10-09T09:21:35;10.80;;;7.20;;
7969;SDS011;4030;52.362;9.206;2023-10-09T09:24:08;11.30;;;7.50;;
7969;SDS011;4030;52.362;9.206;2023-10-09T09:26:47;9.73;;;7.13;;
7969;SDS011;4030;52.362;9.206;2023-10-09T09:29:24;10.18;;;7.32;;
7969;SDS011;4030;52.362;9.206;2023-10-09T09:32:06;10.43;;;7.65;;
7969;SDS011;4030;52.362;9.206;2023-10-09T09:34:52;9.93;;;7.88;;
7969;SDS011;4030;52.362;9.206;2023-10-09T09:37:29;11.93;;;7.82;;
7969;SDS011;4030;52.362;9.206;2023-10-09T09:40:04;9.75;;;8.05;;
7969;SDS011;4030;52.362;9.206;2023-10-09T09:42:49;9.35;;;7.90;;
7969;SDS011;4030;52.362;9.206;2023-10-09T09:45:16;9.88;;;7.97;;
7969;SDS011;4030;52.362;9.206;2023-10-09T09:47:48;9.48;;;8.30;;
7969;SDS011;4030;52.362;9.206;2023-10-09T09:50:19;10.25;;;7.90;;
7969;SDS011;4030;52.362;9.206;2023-10-09T09:52:51;10.73;;;8.05;;
7969;SDS011;4030;52.362;9.206;2023-10-09T09:55:21;9.48;;;8.07;;
7969;SDS011;4030;52.362;9.206;2023-10-09T09:57:58;14.07;;;8.13;;
7969;SDS011;4030;52.362;9.206;2023-10-09T10:00:28;10.63;;;7.40;;
7969;SDS011;4030;52.362;9.206;2023-10-09T10:03:06;12.15;;;7.50;;
7969;SDS011;4030;52.362;9.206;2023-10-09T10:05:46;9.63;;;8.23;;
7969;SDS011;4030;52.362;9.206;2023-10-09T10:08:15;9.73;;;7.88;;
7969;SDS011;4030;52.362;9.206;2023-10-09T10:10:46;12.63;;;7.90;;
7969;SDS011;4030;52.362;9.206;2023-10-09T10:16:09;10.00;;;7.30;;
7969;SDS011;4030;52.362;9.206;2023-10-09T10:21:32;8.20;;;6.43;;
7969;SDS011;4030;52.362;9.206;2023-10-09T10:29:43;6.93;;;6.00;;
7969;SDS011;4030;52.362;9.206;2023-10-09T10:32:15;7.53;;;5.82;;
7969;SDS011;4030;52.362;9.206;2023-10-09T10:37:20;7.10;;;6.13;;
7969;SDS011;4030;52.362;9.206;2023-10-09T10:40:03;8.15;;;5.75;;
7969;SDS011;4030;52.362;9.206;2023-10-09T10:42:49;6.75;;;5.22;;
7969;SDS011;4030;52.362;9.206;2023-10-09T10:45:34;7.43;;;5.65;;
7969;SDS011;4030;52.362;9.206;2023-10-09T10:48:09;7.63;;;5.68;;
7969;SDS011;4030;52.362;9.206;2023-10-09T10:50:48;6.88;;;5.47;;
7969;SDS011;4030;52.362;9.206;2023-10-09T10:53:22;8.15;;;5.82;;
7969;SDS011;4030;52.362;9.206;2023-10-09T10:55:56;7.20;;;6.30;;
7969;SDS011;4030;52.362;9.206;2023-10-09T10:58:42;7.38;;;5.70;;
7969;SDS011;4030;52.362;9.206;2023-10-09T11:01:32;8.68;;;6.05;;
7969;SDS011;4030;52.362;9.206;2023-10-09T11:04:18;7.10;;;5.55;;
7969;SDS011;4030;52.362;9.206;2023-10-09T11:06:54;7.72;;;5.55;;
7969;SDS011;4030;52.362;9.206;2023-10-09T11:09:46;8.48;;;5.95;;
7969;SDS011;4030;52.362;9.206;2023-10-09T11:15:11;7.60;;;5.75;;
7969;SDS011;4030;52.362;9.206;2023-10-09T11:18:03;6.90;;;5.78;;
7969;SDS011;4030;52.362;9.206;2023-10-09T11:20:36;8.20;;;6.10;;
7969;SDS011;4030;52.362;9.206;2023-10-09T11:23:04;7.28;;;5.65;;
7969;SDS011;4030;52.362;9.206;2023-10-09T11:25:43;5.97;;;5.38;;
7969;SDS011;4030;52.362;9.206;2023-10-09T11:28:19;7.45;;;5.60;;
7969;SDS011;4030;52.362;9.206;2023-10-09T11:31:07;7.85;;;5.60;;
7969;SDS011;4030;52.362;9.206;2023-10-09T11:33:47;7.47;;;6.22;;
7969;SDS011;4030;52.362;9.206;2023-10-09T11:36:20;7.20;;;5.38;;
7969;SDS011;4030;52.362;9.206;2023-10-09T11:39:12;6.45;;;5.57;;
7969;SDS011;4030;52.362;9.206;2023-10-09T11:42:01;7.55;;;5.47;;
7969;SDS011;4030;52.362;9.206;2023-10-09T11:44:38;5.85;;;4.65;;
7969;SDS011;4030;52.362;9.206;2023-10-09T11:47:10;6.05;;;5.03;;
7969;SDS011;4030;52.362;9.206;2023-10-09T11:49:52;6.47;;;5.57;;
7969;SDS011;4030;52.362;9.206;2023-10-09T11:52:25;6.63;;;5.22;;
7969;SDS011;4030;52.362;9.206;2023-10-09T11:54:57;7.18;;;5.43;;
7969;SDS011;4030;52.362;9.206;2023-10-09T11:57:24;6.35;;;5.20;;
7969;SDS011;4030;52.362;9.206;2023-10-09T11:59:56;7.35;;;5.43;;
7969;SDS011;4030;52.362;9.206;2023-10-09T12:02:23;6.57;;;5.28;;
7969;SDS011;4030;52.362;9.206;2023-10-09T12:04:49;6.75;;;5.10;;
7969;SDS011;4030;52.362;9.206;2023-10-09T12:07:15;6.85;;;5.15;;
7969;SDS011;4030;52.362;9.206;2023-10-09T12:09:41;6.50;;;5.10;;
7969;SDS011;4030;52.362;9.206;2023-10-09T12:12:07;6.47;;;4.90;;
7969;SDS011;4030;52.362;9.206;2023-10-09T12:14:34;6.10;;;5.20;;
7969;SDS011;4030;52.362;9.206;2023-10-09T12:17:03;7.15;;;4.70;;
7969;SDS011;4030;52.362;9.206;2023-10-09T12:19:33;6.13;;;4.60;;
7969;SDS011;4030;52.362;9.206;2023-10-09T12:22:04;6.18;;;4.70;;
7969;SDS011;4030;52.362;9.206;2023-10-09T12:24:32;6.55;;;4.57;;
7969;SDS011;4030;52.362;9.206;2023-10-09T12:26:59;5.43;;;4.45;;
7969;SDS011;4030;52.362;9.206;2023-10-09T12:29:25;4.50;;;4.00;;
7969;SDS011;4030;52.362;9.206;2023-10-09T12:31:55;4.65;;;4.25;;
7969;SDS011;4030;52.362;9.206;2023-10-09T12:34:25;5.00;;;4.25;;
7969;SDS011;4030;52.362;9.206;2023-10-09T12:36:56;6.55;;;4.10;;
7969;SDS011;4030;52.362;9.206;2023-10-09T12:39:26;4.65;;;4.13;;
7969;SDS011;4030;52.362;9.206;2023-10-09T12:41:58;4.55;;;4.07;;
7969;SDS011;4030;52.362;9.206;2023-10-09T12:44:37;5.47;;;4.25;;
7969;SDS011;4030;52.362;9.206;2023-10-09T12:47:06;5.47;;;4.40;;
7969;SDS011;4030;52.362;9.206;2023-10-09T12:49:32;4.93;;;3.75;;
7969;SDS011;4030;52.362;9.206;2023-10-09T12:51:58;4.93;;;4.10;;
7969;SDS011;4030;52.362;9.206;2023-10-09T12:54:27;4.20;;;3.67;;
7969;SDS011;4030;52.362;9.206;2023-10-09T12:56:53;4.28;;;3.75;;
7969;SDS011;4030;52.362;9.206;2023-10-09T12:59:20;6.13;;;4.10;;
7969;SDS011;4030;52.362;9.206;2023-10-09T13:01:46;4.80;;;3.55;;
7969;SDS011;4030;52.362;9.206;2023-10-09T13:04:17;4.00;;;3.60;;
7969;SDS011;4030;52.362;9.206;2023-10-09T13:06:47;3.55;;;3.25;;
7969;SDS011;4030;52.362;9.206;2023-10-09T13:09:17;4.47;;;3.60;;
7969;SDS011;4030;52.362;9.206;2023-10-09T13:11:58;4.22;;;3.60;;
7969;SDS011;4030;52.362;9.206;2023-10-09T13:14:25;4.43;;;3.40;;
7969;SDS011;4030;52.362;9.206;2023-10-09T13:16:59;4.68;;;3.42;;
7969;SDS011;4030;52.362;9.206;2023-10-09T13:19:25;4.80;;;3.53;;
7969;SDS011;4030;52.362;9.206;2023-10-09T13:21:51;3.83;;;3.42;;
7969;SDS011;4030;52.362;9.206;2023-10-09T13:24:17;3.78;;;3.22;;
7969;SDS011;4030;52.362;9.206;2023-10-09T13:26:43;4.13;;;3.45;;
7969;SDS011;4030;52.362;9.206;2023-10-09T13:29:16;3.80;;;3.15;;
7969;SDS011;4030;52.362;9.206;2023-10-09T13:31:47;3.90;;;3.40;;
7969;SDS011;4030;52.362;9.206;2023-10-09T13:34:14;3.95;;;3.42;;
7969;SDS011;4030;52.362;9.206;2023-10-09T13:36:40;4.30;;;3.00;;
7969;SDS011;4030;52.362;9.206;2023-10-09T13:39:27;3.45;;;3.00;;
7969;SDS011;4030;52.362;9.206;2023-10-09T13:41:56;4.20;;;3.13;;
7969;SDS011;4030;52.362;9.206;2023-10-09T13:46:56;4.10;;;3.03;;
7969;SDS011;4030;52.362;9.206;2023-10-09T13:49:23;3.63;;;3.30;;
7969;SDS011;4030;52.362;9.206;2023-10-09T13:51:55;3.45;;;3.15;;
7969;SDS011;4030;52.362;9.206;2023-10-09T13:54:22;4.15;;;3.50;;
7969;SDS011;4030;52.362;9.206;2023-10-09T13:57:00;4.00;;;3.58;;
7969;SDS011;4030;52.362;9.206;2023-10-09T13:59:31;4.75;;;3.63;;
7969;SDS011;4030;52.362;9.206;2023-10-09T14:02:00;3.90;;;3.50;;
7969;SDS011;4030;52.362;9.206;2023-10-09T14:04:27;4.00;;;3.47;;
7969;SDS011;4030;52.362;9.206;2023-10-09T14:06:54;4.47;;;3.13;;
7969;SDS011;4030;52.362;9.206;2023-10-09T14:09:24;4.13;;;3.47;;
7969;SDS011;4030;52.362;9.206;2023-10-09T14:12:03;4.43;;;3.58;;
7969;SDS011;4030;52.362;9.206;2023-10-09T14:14:35;4.85;;;3.40;;
7969;SDS011;4030;52.362;9.206;2023-10-09T14:17:15;3.55;;;2.95;;
7969;SDS011;4030;52.362;9.206;2023-10-09T14:19:48;4.18;;;3.60;;
7969;SDS011;4030;52.362;9.206;2023-10-09T14:22:18;3.95;;;3.30;;
7969;SDS011;4030;52.362;9.206;2023-10-09T14:24:51;4.63;;;3.78;;
7969;SDS011;4030;52.362;9.206;2023-10-09T14:27:22;4.53;;;3.70;;
7969;SDS011;4030;52.362;9.206;2023-10-09T14:29:52;4.13;;;3.53;;
7969;SDS011;4030;52.362;9.206;2023-10-09T14:32:24;5.47;;;3.50;;
7969;SDS011;4030;52.362;9.206;2023-10-09T14:35:08;4.28;;;3.25;;
7969;SDS011;4030;52.362;9.206;2023-10-09T14:37:38;4.85;;;3.50;;
7969;SDS011;4030;52.362;9.206;2023-10-09T14:40:05;3.92;;;3.15;;
7969;SDS011;4030;52.362;9.206;2023-10-09T14:42:38;4.25;;;3.45;;
7969;SDS011;4030;52.362;9.206;2023-10-09T14:45:10;4.82;;;3.60;;
7969;SDS011;4030;52.362;9.206;2023-10-09T14:47:43;4.95;;;3.72;;
7969;SDS011;4030;52.362;9.206;2023-10-09T14:50:11;4.53;;;3.50;;
7969;SDS011;4030;52.362;9.206;2023-10-09T14:52:38;5.22;;;3.63;;
7969;SDS011;4030;52.362;9.206;2023-10-09T14:55:05;3.80;;;3.38;;
7969;SDS011;4030;52.362;9.206;2023-10-09T14:57:32;4.13;;;3.17;;
7969;SDS011;4030;52.362;9.206;2023-10-09T15:00:00;4.88;;;3.60;;
7969;SDS011;4030;52.362;9.206;2023-10-09T15:02:32;4.28;;;3.28;;
7969;SDS011;4030;52.362;9.206;2023-10-09T15:04:58;3.78;;;3.28;;
7969;SDS011;4030;52.362;9.206;2023-10-09T15:07:24;4.90;;;3.78;;
7969;SDS011;4030;52.362;9.206;2023-10-09T15:09:50;5.60;;;3.83;;
7969;SDS011;4030;52.362;9.206;2023-10-09T15:12:16;5.15;;;3.97;;
7969;SDS011;4030;52.362;9.206;2023-10-09T15:14:41;4.55;;;4.05;;
7969;SDS011;4030;52.362;9.206;2023-10-09T15:17:08;5.50;;;3.92;;
7969;SDS011;4030;52.362;9.206;2023-10-09T15:19:34;3.67;;;3.15;;
7969;SDS011;4030;52.362;9.206;2023-10-09T15:21:59;4.72;;;3.10;;
7969;SDS011;4030;52.362;9.206;2023-10-09T15:24:25;4.70;;;3.08;;
7969;SDS011;4030;52.362;9.206;2023-10-09T15:26:52;3.97;;;3.00;;
7969;SDS011;4030;52.362;9.206;2023-10-09T15:29:22;4.60;;;3.28;;
7969;SDS011;4030;52.362;9.206;2023-10-09T15:31:55;4.30;;;3.22;;
7969;SDS011;4030;52.362;9.206;2023-10-09T15:34:29;4.15;;;3.50;;
7969;SDS011;4030;52.362;9.206;2023-10-09T15:37:01;5.40;;;3.35;;
7969;SDS011;4030;52.362;9.206;2023-10-09T15:39:28;4.30;;;3.38;;
7969;SDS011;4030;52.362;9.206;2023-10-09T15:41:55;4.47;;;3.40;;
7969;SDS011;4030;52.362;9.206;2023-10-09T15:44:21;3.72;;;3.10;;
7969;SDS011;4030;52.362;9.206;2023-10-09T15:46:50;3.60;;;2.83;;
7969;SDS011;4030;52.362;9.206;2023-10-09T15:49:22;4.75;;;3.33;;
7969;SDS011;4030;52.362;9.206;2023-10-09T15:51:47;4.00;;;3.15;;
7969;SDS011;4030;52.362;9.206;2023-10-09T15:54:13;4.85;;;3.22;;
7969;SDS011;4030;52.362;9.206;2023-10-09T15:56:44;3.80;;;3.20;;
7969;SDS011;4030;52.362;9.206;2023-10-09T15:59:11;4.30;;;2.95;;
7969;SDS011;4030;52.362;9.206;2023-10-09T16:01:37;4.57;;;3.03;;
7969;SDS011;4030;52.362;9.206;2023-10-09T16:04:08;4.10;;;3.25;;
7969;SDS011;4030;52.362;9.206;2023-10-09T16:06:36;4.03;;;3.13;;
7969;SDS011;4030;52.362;9.206;2023-10-09T16:09:06;5.60;;;3.22;;
7969;SDS011;4030;52.362;9.206;2023-10-09T16:11:40;5.70;;;3.40;;
7969;SDS011;4030;52.362;9.206;2023-10-09T16:14:06;4.57;;;2.83;;
7969;SDS011;4030;52.362;9.206;2023-10-09T16:16:35;4.15;;;2.88;;
7969;SDS011;4030;52.362;9.206;2023-10-09T16:19:06;5.20;;;3.08;;
7969;SDS011;4030;52.362;9.206;2023-10-09T16:21:37;4.97;;;3.10;;
7969;SDS011;4030;52.362;9.206;2023-10-09T16:24:03;4.60;;;2.42;;
7969;SDS011;4030;52.362;9.206;2023-10-09T16:26:35;4.03;;;2.90;;